sensor_id;sensor_type;location;lat;lon;timestamp;P1;durP1;ratioP1;P2;durP2;ratioP2
10725;SDS011;5414;59.782;16.378;2023-07-16T00:02:10;5.30;;;3.03;;
10725;SDS011;5414;59.782;16.378;2023-07-16T00:04:36;3.13;;;2.83;;
10725;SDS011;5414;59.782;16.378;2023-07-16T00:07:02;3.50;;;2.90;;
10725;SDS011;5414;59.782;16.378;2023-07-16T00:09:28;4.83;;;3.20;;
10725;SDS011;5414;59.782;16.378;2023-07-16T00:11:55;4.23;;;3.40;;
10725;SDS011;5414;59.782;16.378;2023-07-16T00:14:21;3.23;;;2.93;;
10725;SDS011;5414;59.782;16.378;2023-07-16T00:16:47;6.00;;;3.50;;
10725;SDS011;5414;59.782;16.378;2023-07-16T00:19:14;3.67;;;2.90;;
10725;SDS011;5414;59.782;16.378;2023-07-16T00:21:40;3.40;;;3.10;;
10725;SDS011;5414;59.782;16.378;2023-07-16T00:24:06;4.10;;;3.10;;
10725;SDS011;5414;59.782;16.378;2023-07-16T00:26:32;3.83;;;3.30;;
10725;SDS011;5414;59.782;16.378;2023-07-16T00:28:58;4.10;;;3.33;;
10725;SDS011;5414;59.782;16.378;2023-07-16T00:31:24;4.10;;;3.30;;
10725;SDS011;5414;59.782;16.378;2023-07-16T00:33:50;4.27;;;3.53;;
10725;SDS011;5414;59.782;16.378;2023-07-16T00:36:16;4.57;;;3.43;;
10725;SDS011;5414;59.782;16.378;2023-07-16T00:38:42;5.03;;;3.43;;
10725;SDS011;5414;59.782;16.378;2023-07-16T00:41:10;4.90;;;3.20;;
10725;SDS011;5414;59.782;16.378;2023-07-16T00:43:36;3.67;;;3.20;;
10725;SDS011;5414;59.782;16.378;2023-07-16T00:46:02;3.70;;;3.40;;
10725;SDS011;5414;59.782;16.378;2023-07-16T00:48:28;4.07;;;3.67;;
10725;SDS011;5414;59.782;16.378;2023-07-16T00:50:54;3.87;;;3.40;;
10725;SDS011;5414;59.782;16.378;2023-07-16T00:53:21;4.43;;;3.60;;
10725;SDS011;5414;59.782;16.378;2023-07-16T00:55:47;5.07;;;3.60;;
10725;SDS011;5414;59.782;16.378;2023-07-16T00:58:13;4.17;;;3.77;;
10725;SDS011;5414;59.782;16.378;2023-07-16T01:00:39;3.97;;;3.67;;
10725;SDS011;5414;59.782;16.378;2023-07-16T01:03:06;5.07;;;3.97;;
10725;SDS011;5414;59.782;16.378;2023-07-16T01:08:32;4.80;;;4.33;;
10725;SDS011;5414;59.782;16.378;2023-07-16T01:10:59;4.63;;;4.23;;
10725;SDS011;5414;59.782;16.378;2023-07-16T01:13:26;5.37;;;4.77;;
10725;SDS011;5414;59.782;16.378;2023-07-16T01:15:52;4.73;;;4.30;;
10725;SDS011;5414;59.782;16.378;2023-07-16T01:18:18;8.17;;;4.63;;
10725;SDS011;5414;59.782;16.378;2023-07-16T01:20:44;5.00;;;4.50;;
10725;SDS011;5414;59.782;16.378;2023-07-16T01:23:26;5.57;;;4.80;;
10725;SDS011;5414;59.782;16.378;2023-07-16T01:26:05;5.20;;;4.70;;
10725;SDS011;5414;59.782;16.378;2023-07-16T01:28:36;5.33;;;4.60;;
10725;SDS011;5414;59.782;16.378;2023-07-16T01:31:05;5.83;;;5.27;;
10725;SDS011;5414;59.782;16.378;2023-07-16T01:33:31;6.10;;;4.50;;
10725;SDS011;5414;59.782;16.378;2023-07-16T01:35:58;5.80;;;5.20;;
10725;SDS011;5414;59.782;16.378;2023-07-16T01:38:25;5.77;;;5.13;;
10725;SDS011;5414;59.782;16.378;2023-07-16T01:40:51;5.63;;;5.07;;
10725;SDS011;5414;59.782;16.378;2023-07-16T01:43:17;5.73;;;4.90;;
10725;SDS011;5414;59.782;16.378;2023-07-16T01:45:43;5.83;;;5.33;;
10725;SDS011;5414;59.782;16.378;2023-07-16T01:50:39;6.13;;;5.53;;
10725;SDS011;5414;59.782;16.378;2023-07-16T01:53:05;5.50;;;5.00;;
10725;SDS011;5414;59.782;16.378;2023-07-16T01:55:31;6.40;;;5.80;;
10725;SDS011;5414;59.782;16.378;2023-07-16T01:57:57;5.83;;;5.27;;
10725;SDS011;5414;59.782;16.378;2023-07-16T02:00:23;6.10;;;5.50;;
10725;SDS011;5414;59.782;16.378;2023-07-16T02:02:49;6.10;;;5.43;;
10725;SDS011;5414;59.782;16.378;2023-07-16T02:05:16;6.47;;;5.47;;
10725;SDS011;5414;59.782;16.378;2023-07-16T02:07:42;7.10;;;5.53;;
10725;SDS011;5414;59.782;16.378;2023-07-16T02:10:08;6.90;;;5.33;;
10725;SDS011;5414;59.782;16.378;2023-07-16T02:12:34;6.83;;;6.03;;
10725;SDS011;5414;59.782;16.378;2023-07-16T02:15:00;7.40;;;6.27;;
10725;SDS011;5414;59.782;16.378;2023-07-16T02:17:26;5.80;;;5.30;;
10725;SDS011;5414;59.782;16.378;2023-07-16T02:19:52;6.47;;;5.87;;
10725;SDS011;5414;59.782;16.378;2023-07-16T02:22:18;6.53;;;5.93;;
10725;SDS011;5414;59.782;16.378;2023-07-16T02:24:44;7.27;;;5.83;;
10725;SDS011;5414;59.782;16.378;2023-07-16T02:27:10;7.00;;;6.30;;
10725;SDS011;5414;59.782;16.378;2023-07-16T02:29:36;7.20;;;6.50;;
10725;SDS011;5414;59.782;16.378;2023-07-16T02:32:02;6.93;;;6.30;;
10725;SDS011;5414;59.782;16.378;2023-07-16T02:34:28;7.07;;;6.40;;
10725;SDS011;5414;59.782;16.378;2023-07-16T02:36:54;7.67;;;6.73;;
10725;SDS011;5414;59.782;16.378;2023-07-16T02:39:20;7.60;;;6.80;;
10725;SDS011;5414;59.782;16.378;2023-07-16T02:41:47;7.37;;;6.67;;
10725;SDS011;5414;59.782;16.378;2023-07-16T02:44:13;10.23;;;6.87;;
10725;SDS011;5414;59.782;16.378;2023-07-16T02:46:39;7.30;;;6.40;;
10725;SDS011;5414;59.782;16.378;2023-07-16T02:49:05;7.53;;;6.90;;
10725;SDS011;5414;59.782;16.378;2023-07-16T02:51:31;7.90;;;6.60;;
10725;SDS011;5414;59.782;16.378;2023-07-16T02:53:57;7.53;;;6.93;;
10725;SDS011;5414;59.782;16.378;2023-07-16T02:56:23;7.93;;;6.83;;
10725;SDS011;5414;59.782;16.378;2023-07-16T02:58:49;8.37;;;7.37;;
10725;SDS011;5414;59.782;16.378;2023-07-16T03:01:15;8.10;;;7.37;;
10725;SDS011;5414;59.782;16.378;2023-07-16T03:03:41;8.93;;;7.77;;
10725;SDS011;5414;59.782;16.378;2023-07-16T03:06:07;8.37;;;7.57;;
10725;SDS011;5414;59.782;16.378;2023-07-16T03:08:33;8.20;;;7.50;;
10725;SDS011;5414;59.782;16.378;2023-07-16T03:10:59;8.43;;;7.60;;
10725;SDS011;5414;59.782;16.378;2023-07-16T03:13:25;9.23;;;7.50;;
10725;SDS011;5414;59.782;16.378;2023-07-16T03:15:51;8.93;;;7.97;;
10725;SDS011;5414;59.782;16.378;2023-07-16T03:18:18;10.53;;;8.40;;
10725;SDS011;5414;59.782;16.378;2023-07-16T03:20:44;9.97;;;8.23;;
10725;SDS011;5414;59.782;16.378;2023-07-16T03:23:10;10.30;;;9.27;;
10725;SDS011;5414;59.782;16.378;2023-07-16T03:25:36;9.80;;;8.27;;
10725;SDS011;5414;59.782;16.378;2023-07-16T03:28:02;10.53;;;8.97;;
10725;SDS011;5414;59.782;16.378;2023-07-16T03:30:30;10.37;;;9.33;;
10725;SDS011;5414;59.782;16.378;2023-07-16T03:32:56;9.73;;;8.53;;
10725;SDS011;5414;59.782;16.378;2023-07-16T03:35:22;10.10;;;9.10;;
10725;SDS011;5414;59.782;16.378;2023-07-16T03:37:48;10.00;;;9.10;;
10725;SDS011;5414;59.782;16.378;2023-07-16T03:40:15;10.57;;;9.53;;
10725;SDS011;5414;59.782;16.378;2023-07-16T03:42:41;11.90;;;9.20;;
10725;SDS011;5414;59.782;16.378;2023-07-16T03:45:07;10.40;;;9.43;;
10725;SDS011;5414;59.782;16.378;2023-07-16T03:47:34;9.67;;;8.70;;
10725;SDS011;5414;59.782;16.378;2023-07-16T03:50:00;10.40;;;9.10;;
10725;SDS011;5414;59.782;16.378;2023-07-16T03:52:26;10.87;;;9.20;;
10725;SDS011;5414;59.782;16.378;2023-07-16T03:54:53;10.37;;;9.13;;
10725;SDS011;5414;59.782;16.378;2023-07-16T03:57:20;10.07;;;8.73;;
10725;SDS011;5414;59.782;16.378;2023-07-16T03:59:46;9.50;;;8.60;;
10725;SDS011;5414;59.782;16.378;2023-07-16T04:02:12;9.50;;;8.50;;
10725;SDS011;5414;59.782;16.378;2023-07-16T04:04:38;10.27;;;9.00;;
10725;SDS011;5414;59.782;16.378;2023-07-16T04:07:04;11.17;;;9.00;;
10725;SDS011;5414;59.782;16.378;2023-07-16T04:09:30;9.83;;;8.27;;
10725;SDS011;5414;59.782;16.378;2023-07-16T04:11:56;11.60;;;9.13;;
10725;SDS011;5414;59.782;16.378;2023-07-16T04:14:22;10.77;;;8.73;;
10725;SDS011;5414;59.782;16.378;2023-07-16T04:16:48;10.00;;;9.00;;
10725;SDS011;5414;59.782;16.378;2023-07-16T04:19:14;9.10;;;8.17;;
10725;SDS011;5414;59.782;16.378;2023-07-16T04:21:40;9.60;;;8.23;;
10725;SDS011;5414;59.782;16.378;2023-07-16T04:24:06;9.97;;;9.00;;
10725;SDS011;5414;59.782;16.378;2023-07-16T04:26:32;9.40;;;8.40;;
10725;SDS011;5414;59.782;16.378;2023-07-16T04:28:58;9.50;;;8.43;;
10725;SDS011;5414;59.782;16.378;2023-07-16T04:31:24;9.53;;;8.63;;
10725;SDS011;5414;59.782;16.378;2023-07-16T04:33:50;12.17;;;7.97;;
10725;SDS011;5414;59.782;16.378;2023-07-16T04:36:16;9.20;;;7.90;;
10725;SDS011;5414;59.782;16.378;2023-07-16T04:38:42;9.50;;;8.33;;
10725;SDS011;5414;59.782;16.378;2023-07-16T04:41:08;9.07;;;8.03;;
10725;SDS011;5414;59.782;16.378;2023-07-16T04:43:34;8.70;;;7.83;;
10725;SDS011;5414;59.782;16.378;2023-07-16T04:46:00;9.03;;;7.73;;
10725;SDS011;5414;59.782;16.378;2023-07-16T04:48:26;9.37;;;7.87;;
10725;SDS011;5414;59.782;16.378;2023-07-16T04:50:52;7.90;;;7.10;;
10725;SDS011;5414;59.782;16.378;2023-07-16T04:53:18;7.87;;;7.03;;
10725;SDS011;5414;59.782;16.378;2023-07-16T04:55:45;8.30;;;7.10;;
10725;SDS011;5414;59.782;16.378;2023-07-16T04:58:11;9.30;;;7.43;;
10725;SDS011;5414;59.782;16.378;2023-07-16T05:00:37;8.13;;;7.43;;
10725;SDS011;5414;59.782;16.378;2023-07-16T05:03:03;7.87;;;7.13;;
10725;SDS011;5414;59.782;16.378;2023-07-16T05:05:29;7.93;;;7.10;;
10725;SDS011;5414;59.782;16.378;2023-07-16T05:07:56;8.57;;;7.70;;
10725;SDS011;5414;59.782;16.378;2023-07-16T05:10:22;10.47;;;8.07;;
10725;SDS011;5414;59.782;16.378;2023-07-16T05:12:48;8.67;;;7.80;;
10725;SDS011;5414;59.782;16.378;2023-07-16T05:15:14;8.90;;;7.53;;
10725;SDS011;5414;59.782;16.378;2023-07-16T05:17:40;9.73;;;7.43;;
10725;SDS011;5414;59.782;16.378;2023-07-16T05:20:06;7.60;;;6.90;;
10725;SDS011;5414;59.782;16.378;2023-07-16T05:22:34;9.73;;;7.70;;
10725;SDS011;5414;59.782;16.378;2023-07-16T05:25:00;7.83;;;7.13;;
10725;SDS011;5414;59.782;16.378;2023-07-16T05:27:27;9.57;;;7.07;;
10725;SDS011;5414;59.782;16.378;2023-07-16T05:29:53;9.00;;;7.03;;
10725;SDS011;5414;59.782;16.378;2023-07-16T05:32:19;7.77;;;6.97;;
10725;SDS011;5414;59.782;16.378;2023-07-16T05:34:45;8.20;;;7.00;;
10725;SDS011;5414;59.782;16.378;2023-07-16T05:37:12;6.90;;;6.20;;
10725;SDS011;5414;59.782;16.378;2023-07-16T05:39:38;11.53;;;7.07;;
10725;SDS011;5414;59.782;16.378;2023-07-16T05:42:04;9.73;;;6.90;;
10725;SDS011;5414;59.782;16.378;2023-07-16T05:44:30;7.27;;;6.57;;
10725;SDS011;5414;59.782;16.378;2023-07-16T05:46:56;7.57;;;6.80;;
10725;SDS011;5414;59.782;16.378;2023-07-16T05:49:23;9.70;;;6.90;;
10725;SDS011;5414;59.782;16.378;2023-07-16T05:51:50;8.30;;;6.90;;
10725;SDS011;5414;59.782;16.378;2023-07-16T05:54:16;9.37;;;7.33;;
10725;SDS011;5414;59.782;16.378;2023-07-16T05:56:42;7.00;;;6.33;;
10725;SDS011;5414;59.782;16.378;2023-07-16T05:59:09;8.77;;;7.47;;
10725;SDS011;5414;59.782;16.378;2023-07-16T06:01:35;8.33;;;7.53;;
10725;SDS011;5414;59.782;16.378;2023-07-16T06:04:01;10.43;;;8.03;;
10725;SDS011;5414;59.782;16.378;2023-07-16T06:06:29;8.13;;;7.17;;
10725;SDS011;5414;59.782;16.378;2023-07-16T06:08:55;8.33;;;7.37;;
10725;SDS011;5414;59.782;16.378;2023-07-16T06:11:21;10.40;;;7.27;;
10725;SDS011;5414;59.782;16.378;2023-07-16T06:13:47;9.03;;;6.90;;
10725;SDS011;5414;59.782;16.378;2023-07-16T06:16:13;7.17;;;6.47;;
10725;SDS011;5414;59.782;16.378;2023-07-16T06:18:40;7.23;;;6.43;;
10725;SDS011;5414;59.782;16.378;2023-07-16T06:21:06;9.30;;;7.00;;
10725;SDS011;5414;59.782;16.378;2023-07-16T06:23:32;7.53;;;6.40;;
10725;SDS011;5414;59.782;16.378;2023-07-16T06:25:58;7.67;;;6.87;;
10725;SDS011;5414;59.782;16.378;2023-07-16T06:28:24;7.23;;;6.53;;
10725;SDS011;5414;59.782;16.378;2023-07-16T06:30:50;7.33;;;6.57;;
10725;SDS011;5414;59.782;16.378;2023-07-16T06:33:17;7.47;;;6.77;;
10725;SDS011;5414;59.782;16.378;2023-07-16T06:35:44;8.83;;;6.70;;
10725;SDS011;5414;59.782;16.378;2023-07-16T06:38:11;9.83;;;7.37;;
10725;SDS011;5414;59.782;16.378;2023-07-16T06:40:37;8.57;;;7.43;;
10725;SDS011;5414;59.782;16.378;2023-07-16T06:43:03;11.87;;;7.53;;
10725;SDS011;5414;59.782;16.378;2023-07-16T06:45:29;10.17;;;7.03;;
10725;SDS011;5414;59.782;16.378;2023-07-16T06:47:55;8.80;;;7.30;;
10725;SDS011;5414;59.782;16.378;2023-07-16T06:50:21;7.83;;;7.07;;
10725;SDS011;5414;59.782;16.378;2023-07-16T06:52:47;9.60;;;6.97;;
10725;SDS011;5414;59.782;16.378;2023-07-16T06:55:13;7.70;;;7.00;;
10725;SDS011;5414;59.782;16.378;2023-07-16T06:57:39;9.47;;;6.73;;
10725;SDS011;5414;59.782;16.378;2023-07-16T07:00:06;8.37;;;7.17;;
10725;SDS011;5414;59.782;16.378;2023-07-16T07:02:35;10.93;;;7.40;;
10725;SDS011;5414;59.782;16.378;2023-07-16T07:05:01;12.10;;;7.43;;
10725;SDS011;5414;59.782;16.378;2023-07-16T07:07:28;9.27;;;7.17;;
10725;SDS011;5414;59.782;16.378;2023-07-16T07:09:54;10.70;;;7.53;;
10725;SDS011;5414;59.782;16.378;2023-07-16T07:12:20;8.70;;;7.80;;
10725;SDS011;5414;59.782;16.378;2023-07-16T07:14:46;9.03;;;7.83;;
10725;SDS011;5414;59.782;16.378;2023-07-16T07:17:13;9.80;;;7.60;;
10725;SDS011;5414;59.782;16.378;2023-07-16T07:19:39;12.13;;;7.93;;
10725;SDS011;5414;59.782;16.378;2023-07-16T07:22:05;9.77;;;8.17;;
10725;SDS011;5414;59.782;16.378;2023-07-16T07:24:31;8.77;;;7.90;;
10725;SDS011;5414;59.782;16.378;2023-07-16T07:26:57;10.57;;;7.83;;
10725;SDS011;5414;59.782;16.378;2023-07-16T07:29:23;10.63;;;8.00;;
10725;SDS011;5414;59.782;16.378;2023-07-16T07:31:49;12.20;;;8.57;;
10725;SDS011;5414;59.782;16.378;2023-07-16T07:34:16;10.63;;;8.27;;
10725;SDS011;5414;59.782;16.378;2023-07-16T07:36:42;13.93;;;8.90;;
10725;SDS011;5414;59.782;16.378;2023-07-16T07:39:08;11.07;;;8.93;;
10725;SDS011;5414;59.782;16.378;2023-07-16T07:41:34;9.47;;;8.50;;
10725;SDS011;5414;59.782;16.378;2023-07-16T07:44:00;9.23;;;8.23;;
10725;SDS011;5414;59.782;16.378;2023-07-16T07:46:26;9.50;;;8.30;;
10725;SDS011;5414;59.782;16.378;2023-07-16T07:48:52;8.57;;;7.70;;
10725;SDS011;5414;59.782;16.378;2023-07-16T07:51:19;8.63;;;7.73;;
10725;SDS011;5414;59.782;16.378;2023-07-16T07:53:45;8.50;;;7.70;;
10725;SDS011;5414;59.782;16.378;2023-07-16T07:56:11;8.77;;;7.90;;
10725;SDS011;5414;59.782;16.378;2023-07-16T07:58:37;11.43;;;8.17;;
10725;SDS011;5414;59.782;16.378;2023-07-16T08:01:06;10.17;;;8.30;;
10725;SDS011;5414;59.782;16.378;2023-07-16T08:03:33;11.73;;;8.70;;
10725;SDS011;5414;59.782;16.378;2023-07-16T08:05:59;8.80;;;8.00;;
10725;SDS011;5414;59.782;16.378;2023-07-16T08:08:25;10.80;;;8.40;;
10725;SDS011;5414;59.782;16.378;2023-07-16T08:10:52;8.93;;;8.03;;
10725;SDS011;5414;59.782;16.378;2023-07-16T08:13:18;9.70;;;8.70;;
10725;SDS011;5414;59.782;16.378;2023-07-16T08:15:44;12.97;;;9.33;;
10725;SDS011;5414;59.782;16.378;2023-07-16T08:18:10;9.63;;;8.50;;
10725;SDS011;5414;59.782;16.378;2023-07-16T08:20:36;8.83;;;8.03;;
10725;SDS011;5414;59.782;16.378;2023-07-16T08:23:02;8.97;;;7.70;;
10725;SDS011;5414;59.782;16.378;2023-07-16T08:25:28;8.40;;;6.90;;
10725;SDS011;5414;59.782;16.378;2023-07-16T08:27:54;7.13;;;6.53;;
10725;SDS011;5414;59.782;16.378;2023-07-16T08:30:20;6.67;;;6.07;;
10725;SDS011;5414;59.782;16.378;2023-07-16T08:32:47;7.77;;;6.30;;
10725;SDS011;5414;59.782;16.378;2023-07-16T08:35:13;7.40;;;6.50;;
10725;SDS011;5414;59.782;16.378;2023-07-16T08:37:43;7.53;;;6.20;;
10725;SDS011;5414;59.782;16.378;2023-07-16T08:40:09;5.83;;;5.27;;
10725;SDS011;5414;59.782;16.378;2023-07-16T08:42:36;6.17;;;5.67;;
10725;SDS011;5414;59.782;16.378;2023-07-16T08:45:05;7.13;;;6.30;;
10725;SDS011;5414;59.782;16.378;2023-07-16T08:47:32;6.50;;;5.87;;
10725;SDS011;5414;59.782;16.378;2023-07-16T08:49:58;6.50;;;5.20;;
10725;SDS011;5414;59.782;16.378;2023-07-16T08:52:25;6.30;;;5.70;;
10725;SDS011;5414;59.782;16.378;2023-07-16T08:54:52;6.80;;;6.03;;
10725;SDS011;5414;59.782;16.378;2023-07-16T08:57:18;6.27;;;5.70;;
10725;SDS011;5414;59.782;16.378;2023-07-16T08:59:47;6.57;;;5.97;;
10725;SDS011;5414;59.782;16.378;2023-07-16T09:02:14;5.90;;;5.40;;
10725;SDS011;5414;59.782;16.378;2023-07-16T09:04:41;6.97;;;6.37;;
10725;SDS011;5414;59.782;16.378;2023-07-16T09:07:07;6.40;;;5.80;;
10725;SDS011;5414;59.782;16.378;2023-07-16T09:09:33;6.33;;;5.67;;
10725;SDS011;5414;59.782;16.378;2023-07-16T09:11:59;6.37;;;5.50;;
10725;SDS011;5414;59.782;16.378;2023-07-16T09:14:26;6.33;;;5.80;;
10725;SDS011;5414;59.782;16.378;2023-07-16T09:16:52;6.30;;;5.70;;
10725;SDS011;5414;59.782;16.378;2023-07-16T09:19:18;5.53;;;5.03;;
10725;SDS011;5414;59.782;16.378;2023-07-16T09:21:47;7.43;;;5.23;;
10725;SDS011;5414;59.782;16.378;2023-07-16T09:24:13;7.17;;;4.90;;
10725;SDS011;5414;59.782;16.378;2023-07-16T09:26:47;6.67;;;5.83;;
10725;SDS011;5414;59.782;16.378;2023-07-16T09:29:13;5.67;;;5.17;;
10725;SDS011;5414;59.782;16.378;2023-07-16T09:31:50;5.90;;;5.40;;
10725;SDS011;5414;59.782;16.378;2023-07-16T09:34:16;6.70;;;5.50;;
10725;SDS011;5414;59.782;16.378;2023-07-16T09:36:42;6.43;;;5.30;;
10725;SDS011;5414;59.782;16.378;2023-07-16T09:39:08;7.53;;;5.53;;
10725;SDS011;5414;59.782;16.378;2023-07-16T09:41:34;6.33;;;5.73;;
10725;SDS011;5414;59.782;16.378;2023-07-16T09:44:03;6.40;;;5.60;;
10725;SDS011;5414;59.782;16.378;2023-07-16T09:46:29;5.50;;;5.00;;
10725;SDS011;5414;59.782;16.378;2023-07-16T09:48:55;5.83;;;5.30;;
10725;SDS011;5414;59.782;16.378;2023-07-16T09:51:21;6.07;;;5.57;;
10725;SDS011;5414;59.782;16.378;2023-07-16T09:53:48;6.93;;;5.50;;
10725;SDS011;5414;59.782;16.378;2023-07-16T09:56:15;6.17;;;5.60;;
10725;SDS011;5414;59.782;16.378;2023-07-16T09:58:42;6.10;;;5.50;;
10725;SDS011;5414;59.782;16.378;2023-07-16T10:01:09;5.67;;;5.17;;
10725;SDS011;5414;59.782;16.378;2023-07-16T10:03:35;5.70;;;5.20;;
10725;SDS011;5414;59.782;16.378;2023-07-16T10:06:07;5.67;;;4.93;;
10725;SDS011;5414;59.782;16.378;2023-07-16T10:08:34;5.60;;;5.10;;
10725;SDS011;5414;59.782;16.378;2023-07-16T10:11:00;6.63;;;5.77;;
10725;SDS011;5414;59.782;16.378;2023-07-16T10:13:26;5.83;;;5.27;;
10725;SDS011;5414;59.782;16.378;2023-07-16T10:15:56;6.20;;;5.00;;
10725;SDS011;5414;59.782;16.378;2023-07-16T10:18:23;6.10;;;5.50;;
10725;SDS011;5414;59.782;16.378;2023-07-16T10:20:49;5.93;;;5.40;;
10725;SDS011;5414;59.782;16.378;2023-07-16T10:23:17;6.90;;;5.50;;
10725;SDS011;5414;59.782;16.378;2023-07-16T10:26:02;6.43;;;5.13;;
10725;SDS011;5414;59.782;16.378;2023-07-16T10:28:31;5.23;;;4.57;;
10725;SDS011;5414;59.782;16.378;2023-07-16T10:30:57;5.27;;;4.87;;
10725;SDS011;5414;59.782;16.378;2023-07-16T10:33:23;5.93;;;4.47;;
10725;SDS011;5414;59.782;16.378;2023-07-16T10:35:50;6.73;;;4.17;;
10725;SDS011;5414;59.782;16.378;2023-07-16T10:38:16;5.53;;;4.63;;
10725;SDS011;5414;59.782;16.378;2023-07-16T10:40:45;5.60;;;4.40;;
10725;SDS011;5414;59.782;16.378;2023-07-16T10:43:11;5.10;;;4.60;;
10725;SDS011;5414;59.782;16.378;2023-07-16T10:45:38;4.67;;;4.27;;
10725;SDS011;5414;59.782;16.378;2023-07-16T10:48:04;5.10;;;4.70;;
10725;SDS011;5414;59.782;16.378;2023-07-16T10:50:34;5.23;;;4.70;;
10725;SDS011;5414;59.782;16.378;2023-07-16T10:53:00;4.20;;;3.80;;
10725;SDS011;5414;59.782;16.378;2023-07-16T10:55:27;4.40;;;4.10;;
10725;SDS011;5414;59.782;16.378;2023-07-16T10:57:53;4.87;;;3.77;;
10725;SDS011;5414;59.782;16.378;2023-07-16T11:00:20;4.27;;;3.90;;
10725;SDS011;5414;59.782;16.378;2023-07-16T11:02:47;4.13;;;3.73;;
10725;SDS011;5414;59.782;16.378;2023-07-16T11:05:13;4.30;;;3.90;;
10725;SDS011;5414;59.782;16.378;2023-07-16T11:07:46;4.07;;;3.70;;
10725;SDS011;5414;59.782;16.378;2023-07-16T11:10:14;4.23;;;3.83;;
10725;SDS011;5414;59.782;16.378;2023-07-16T11:12:41;3.87;;;3.57;;
10725;SDS011;5414;59.782;16.378;2023-07-16T11:15:07;3.80;;;3.50;;
10725;SDS011;5414;59.782;16.378;2023-07-16T11:17:33;5.20;;;3.50;;
10725;SDS011;5414;59.782;16.378;2023-07-16T11:20:00;4.03;;;3.33;;
10725;SDS011;5414;59.782;16.378;2023-07-16T11:22:29;3.87;;;3.50;;
10725;SDS011;5414;59.782;16.378;2023-07-16T11:24:55;3.80;;;3.30;;
10725;SDS011;5414;59.782;16.378;2023-07-16T11:27:31;3.60;;;3.30;;
10725;SDS011;5414;59.782;16.378;2023-07-16T11:29:58;4.33;;;2.80;;
10725;SDS011;5414;59.782;16.378;2023-07-16T11:32:34;4.33;;;2.83;;
10725;SDS011;5414;59.782;16.378;2023-07-16T11:35:01;4.63;;;3.10;;
10725;SDS011;5414;59.782;16.378;2023-07-16T11:37:28;3.60;;;2.90;;
10725;SDS011;5414;59.782;16.378;2023-07-16T11:39:58;2.90;;;2.70;;
10725;SDS011;5414;59.782;16.378;2023-07-16T11:42:29;4.03;;;2.70;;
10725;SDS011;5414;59.782;16.378;2023-07-16T11:44:55;2.93;;;2.70;;
10725;SDS011;5414;59.782;16.378;2023-07-16T11:47:21;3.30;;;2.70;;
10725;SDS011;5414;59.782;16.378;2023-07-16T11:49:48;3.33;;;2.80;;
10725;SDS011;5414;59.782;16.378;2023-07-16T11:52:14;2.60;;;2.10;;
10725;SDS011;5414;59.782;16.378;2023-07-16T11:54:40;2.80;;;2.30;;
10725;SDS011;5414;59.782;16.378;2023-07-16T11:57:06;3.10;;;2.63;;
10725;SDS011;5414;59.782;16.378;2023-07-16T11:59:32;3.20;;;2.77;;
10725;SDS011;5414;59.782;16.378;2023-07-16T12:01:58;2.40;;;2.20;;
10725;SDS011;5414;59.782;16.378;2023-07-16T12:04:25;2.40;;;2.20;;
10725;SDS011;5414;59.782;16.378;2023-07-16T12:06:52;5.47;;;2.30;;
10725;SDS011;5414;59.782;16.378;2023-07-16T12:09:18;3.27;;;2.10;;
10725;SDS011;5414;59.782;16.378;2023-07-16T12:11:44;2.33;;;1.97;;
10725;SDS011;5414;59.782;16.378;2023-07-16T12:14:10;2.13;;;1.90;;
10725;SDS011;5414;59.782;16.378;2023-07-16T12:16:37;2.47;;;1.80;;
10725;SDS011;5414;59.782;16.378;2023-07-16T12:19:05;2.43;;;2.20;;
10725;SDS011;5414;59.782;16.378;2023-07-16T12:21:31;2.90;;;1.70;;
10725;SDS011;5414;59.782;16.378;2023-07-16T12:23:57;3.33;;;2.00;;
10725;SDS011;5414;59.782;16.378;2023-07-16T12:26:23;2.33;;;2.13;;
10725;SDS011;5414;59.782;16.378;2023-07-16T12:28:49;2.73;;;1.70;;
10725;SDS011;5414;59.782;16.378;2023-07-16T12:31:15;3.53;;;2.23;;
10725;SDS011;5414;59.782;16.378;2023-07-16T12:33:45;3.53;;;1.87;;
10725;SDS011;5414;59.782;16.378;2023-07-16T12:36:11;3.23;;;2.20;;
10725;SDS011;5414;59.782;16.378;2023-07-16T12:38:37;3.57;;;2.10;;
10725;SDS011;5414;59.782;16.378;2023-07-16T12:41:03;2.93;;;2.13;;
10725;SDS011;5414;59.782;16.378;2023-07-16T12:43:30;2.30;;;1.73;;
10725;SDS011;5414;59.782;16.378;2023-07-16T12:45:59;2.97;;;2.07;;
10725;SDS011;5414;59.782;16.378;2023-07-16T12:48:25;4.20;;;1.93;;
10725;SDS011;5414;59.782;16.378;2023-07-16T12:50:51;3.67;;;2.27;;
10725;SDS011;5414;59.782;16.378;2023-07-16T12:53:17;4.23;;;2.10;;
10725;SDS011;5414;59.782;16.378;2023-07-16T12:55:43;3.73;;;2.00;;
10725;SDS011;5414;59.782;16.378;2023-07-16T12:58:09;3.40;;;2.20;;
10725;SDS011;5414;59.782;16.378;2023-07-16T13:00:35;4.23;;;2.43;;
10725;SDS011;5414;59.782;16.378;2023-07-16T13:03:01;3.80;;;2.20;;
10725;SDS011;5414;59.782;16.378;2023-07-16T13:05:29;3.20;;;2.40;;
10725;SDS011;5414;59.782;16.378;2023-07-16T13:07:55;3.80;;;2.27;;
10725;SDS011;5414;59.782;16.378;2023-07-16T13:10:22;3.70;;;2.20;;
10725;SDS011;5414;59.782;16.378;2023-07-16T13:12:48;2.73;;;2.07;;
10725;SDS011;5414;59.782;16.378;2023-07-16T13:15:14;3.77;;;2.40;;
10725;SDS011;5414;59.782;16.378;2023-07-16T13:17:40;2.77;;;2.17;;
10725;SDS011;5414;59.782;16.378;2023-07-16T13:20:06;3.40;;;2.07;;
10725;SDS011;5414;59.782;16.378;2023-07-16T13:22:32;5.77;;;2.20;;
10725;SDS011;5414;59.782;16.378;2023-07-16T13:24:58;2.43;;;2.20;;
10725;SDS011;5414;59.782;16.378;2023-07-16T13:27:25;3.03;;;2.40;;
10725;SDS011;5414;59.782;16.378;2023-07-16T13:29:51;3.03;;;2.27;;
10725;SDS011;5414;59.782;16.378;2023-07-16T13:32:17;3.93;;;2.47;;
10725;SDS011;5414;59.782;16.378;2023-07-16T13:34:43;3.60;;;2.13;;
10725;SDS011;5414;59.782;16.378;2023-07-16T13:37:09;4.00;;;2.00;;
10725;SDS011;5414;59.782;16.378;2023-07-16T13:39:35;2.70;;;2.20;;
10725;SDS011;5414;59.782;16.378;2023-07-16T13:42:01;3.13;;;2.33;;
10725;SDS011;5414;59.782;16.378;2023-07-16T13:44:27;3.00;;;2.40;;
10725;SDS011;5414;59.782;16.378;2023-07-16T13:46:53;4.00;;;2.13;;
10725;SDS011;5414;59.782;16.378;2023-07-16T13:49:19;2.40;;;2.20;;
10725;SDS011;5414;59.782;16.378;2023-07-16T13:51:45;4.87;;;2.57;;
10725;SDS011;5414;59.782;16.378;2023-07-16T13:54:11;2.50;;;2.10;;
10725;SDS011;5414;59.782;16.378;2023-07-16T13:56:37;3.47;;;2.30;;
10725;SDS011;5414;59.782;16.378;2023-07-16T13:59:03;5.13;;;2.27;;
10725;SDS011;5414;59.782;16.378;2023-07-16T14:01:29;2.77;;;2.10;;
10725;SDS011;5414;59.782;16.378;2023-07-16T14:03:55;3.33;;;2.10;;
10725;SDS011;5414;59.782;16.378;2023-07-16T14:06:21;3.30;;;2.30;;
10725;SDS011;5414;59.782;16.378;2023-07-16T14:08:47;2.47;;;2.00;;
10725;SDS011;5414;59.782;16.378;2023-07-16T14:11:14;2.73;;;1.97;;
10725;SDS011;5414;59.782;16.378;2023-07-16T14:13:43;2.33;;;2.10;;
10725;SDS011;5414;59.782;16.378;2023-07-16T14:16:09;3.63;;;2.20;;
10725;SDS011;5414;59.782;16.378;2023-07-16T14:18:35;2.67;;;2.00;;
10725;SDS011;5414;59.782;16.378;2023-07-16T14:21:01;4.20;;;2.23;;
10725;SDS011;5414;59.782;16.378;2023-07-16T14:23:29;4.00;;;2.27;;
10725;SDS011;5414;59.782;16.378;2023-07-16T14:25:55;3.57;;;1.97;;
10725;SDS011;5414;59.782;16.378;2023-07-16T14:28:21;3.47;;;2.00;;
10725;SDS011;5414;59.782;16.378;2023-07-16T14:30:47;3.50;;;2.07;;
10725;SDS011;5414;59.782;16.378;2023-07-16T14:33:13;3.27;;;2.17;;
10725;SDS011;5414;59.782;16.378;2023-07-16T14:35:39;6.27;;;2.27;;
10725;SDS011;5414;59.782;16.378;2023-07-16T14:38:05;4.73;;;2.07;;
10725;SDS011;5414;59.782;16.378;2023-07-16T14:40:31;3.40;;;2.43;;
10725;SDS011;5414;59.782;16.378;2023-07-16T14:42:57;4.10;;;2.40;;
10725;SDS011;5414;59.782;16.378;2023-07-16T14:45:23;3.37;;;2.20;;
10725;SDS011;5414;59.782;16.378;2023-07-16T14:47:49;2.37;;;2.10;;